首页
METAR-TAF:

METAR-TAF

机场 :

北京首都国际机场

北京, 中华人民共和国

纬度: 39-56N, 经度: 116-17E, 海拔: 55米

当前天气观测

该预报发布于27分钟前的19:30 UTC
风速2节,风向多变
温度 19°C
湿度 73%
气压 1003 hPa
能见度10公里或以上
1500米以下无云,无积雨云

METAR: ZBAA 231930Z VRB01MPS CAVOK 19/14 Q1003 NOSIG

时间: 03:57 (19:57 UTC)

预报

该预报发布于4小时和37分钟前的15:20 UTC
预报有效从23日的 18点(UTC)到 24日的 18点(UTC)
风速8节,风向
能见度10公里或以上
1500米以下无云,无积雨云
成为
从 24日的 05点(UTC)到 24日的 06点(UTC)
风速10节,风向
成为
从 24日的 13点(UTC)到 24日的 14点(UTC)
风速8节,风向

TAF: ZBAA 231520Z 2318/2418 36004MPS CAVOK TX38/2407Z TN18/2321Z BECMG 2405/2406 18005MPS BECMG 2413/2414 36004MPS

超过4000个机场的气象观测和天气预报(METAR&TAF报告)。

可查询的气象台以黄色和红色小点在地图上表示。

将鼠标移到小点上方,可查看气象台名称。

然后点击查看天气观测和预报。

如需切换地图:点击带黑十字的绿色按钮放大地图;点击带横线的绿色按钮缩小地图;或者点击绿色箭头查看邻近地区的地图。


METAR-TAF: